O Fallon, Illinois
Current Conditions -  °F | °C
As of 9:58 PM on Saturday 20 Dec 2014 (Local Time) from KBLV Reporting Station
Overcast Overcast  
Wind Chill: 38°   Ceiling: 2800
Heat Index: 38°   Visibility: 10mi
Dew Point: 34°   Wind: 3mph
Humidity: 83%   Direction: 130°SE
Pressure: 30.25"   Gusts: NA
Location:  38.6074°N, 89.8929°W
Report Text: KBLV 210358Z AUTO 13003KT 10SM OVC028 04/01 A3025 RMK AO2 SLP250 T00360010 $
Loading
Personal Weather Stations






























Interactive Weather Map New forecast layout! Learn more

10-Day Weather Forecast

Advertisements
Track Severe Weather on mobile